createdAt,value
2022-11-09T00:00:50.300Z,100037.41
2022-11-09T00:03:17.475Z,100052.28
2022-11-09T00:05:44.530Z,100044.41
2022-11-09T00:08:11.778Z,100043.56
2022-11-09T00:10:38.559Z,100043.56
2022-11-09T00:13:05.498Z,100046.22
2022-11-09T00:15:32.047Z,100048.00
2022-11-09T00:18:02.033Z,100051.56
2022-11-09T00:20:28.852Z,100054.22
2022-11-09T00:22:55.488Z,100053.31
2022-11-09T00:25:22.056Z,100044.56
2022-11-09T00:27:48.757Z,100056.97
2022-11-09T00:30:15.580Z,100050.81
2022-11-09T00:32:42.220Z,100049.00
2022-11-09T00:35:09.172Z,100037.56
2022-11-09T00:37:35.816Z,100033.09
2022-11-09T00:40:02.503Z,100030.47
2022-11-09T00:42:29.129Z,100028.75
2022-11-09T00:44:55.692Z,100032.34
2022-11-09T00:47:22.286Z,100032.34
2022-11-09T00:49:49.009Z,100036.81
2022-11-09T00:52:15.600Z,100036.72
2022-11-09T00:54:42.179Z,100031.50
2022-11-09T00:57:08.782Z,100020.00
2022-11-09T00:59:35.352Z,100015.66
2022-11-09T01:02:01.932Z,100010.28
2022-11-09T01:04:28.519Z,100013.81
2022-11-09T01:06:57.760Z,100005.84
2022-11-09T01:09:24.393Z,100010.22
2022-11-09T01:11:50.955Z,100012.88
2022-11-09T01:14:18.685Z,100020.78
2022-11-09T01:16:46.465Z,100009.25
2022-11-09T01:19:13.091Z,100011.91
2022-11-09T01:21:42.317Z,100016.38
2022-11-09T01:24:09.249Z,100003.97
2022-11-09T01:26:39.384Z,100009.25
2022-11-09T01:29:06.068Z,100017.22
2022-11-09T01:31:32.603Z,100001.31
2022-11-09T01:33:59.380Z,99990.78
2022-11-09T01:36:26.064Z,99992.50
2022-11-09T01:38:52.967Z,99991.63
2022-11-09T01:41:27.342Z,99989.84
2022-11-09T01:44:11.076Z,99992.50
2022-11-09T01:46:52.609Z,99982.75
2022-11-09T01:49:28.561Z,99981.91
2022-11-09T01:52:02.169Z,99975.75
2022-11-09T01:54:40.716Z,99972.16
2022-11-09T01:57:12.029Z,99972.16
2022-11-09T01:59:42.981Z,99972.16
2022-11-09T02:02:12.622Z,99967.78
2022-11-09T02:04:47.563Z,99966.00
2022-11-09T02:07:14.858Z,99959.84
2022-11-09T02:09:51.177Z,99960.69
2022-11-09T02:12:20.331Z,99958.03
2022-11-09T02:14:50.962Z,99950.09
2022-11-09T02:17:19.292Z,99958.91
2022-11-09T02:19:45.897Z,99957.19
2022-11-09T02:22:12.707Z,99958.03
2022-11-09T02:24:39.436Z,99958.03
2022-11-09T02:27:07.233Z,99958.03
2022-11-09T02:29:38.814Z,99951.91
2022-11-09T02:32:20.480Z,99948.44
2022-11-09T02:34:47.299Z,99951.91
2022-11-09T02:37:16.781Z,99944.88
2022-11-09T02:39:43.355Z,99953.69
2022-11-09T02:42:18.337Z,99947.53
2022-11-09T02:44:51.417Z,99952.84
2022-11-09T02:47:17.971Z,99949.25
2022-11-09T02:49:46.038Z,99952.72
2022-11-09T02:52:12.632Z,99949.13
2022-11-09T02:54:39.267Z,99950.06
2022-11-09T02:57:05.886Z,99944.78
2022-11-09T02:59:32.485Z,99947.41
2022-11-09T03:01:59.363Z,99940.31
2022-11-09T03:04:25.978Z,99942.88
2022-11-09T03:06:52.730Z,99941.09
2022-11-09T03:09:20.845Z,99938.44
2022-11-09T03:11:47.676Z,99934.94
2022-11-09T03:14:14.748Z,99931.38
2022-11-09T03:16:43.413Z,99927.91
2022-11-09T03:19:15.807Z,99929.63
2022-11-09T03:21:42.414Z,99927.91
2022-11-09T03:24:09.029Z,99916.47
2022-11-09T03:26:35.597Z,99922.72
2022-11-09T03:29:02.131Z,99908.53
2022-11-09T03:31:28.728Z,99906.84
2022-11-09T03:33:55.343Z,99918.44
2022-11-09T03:36:25.655Z,99920.22
2022-11-09T03:38:52.328Z,99921.16
2022-11-09T03:41:18.950Z,99923.03
2022-11-09T03:43:47.717Z,99923.13
2022-11-09T03:46:14.394Z,99916.16
2022-11-09T03:48:40.950Z,99925.06
2022-11-09T03:51:07.620Z,99924.25
2022-11-09T03:53:34.196Z,99920.84
2022-11-09T03:56:00.777Z,99908.44
2022-11-09T03:58:27.425Z,99913.66
2022-11-09T04:00:53.992Z,99915.44
2022-11-09T04:03:20.861Z,99916.31
2022-11-09T04:05:47.739Z,99916.25
2022-11-09T04:08:16.620Z,99912.72
2022-11-09T04:10:43.203Z,99914.44
2022-11-09T04:13:09.890Z,99918.81
2022-11-09T04:15:36.794Z,99925.06
2022-11-09T04:18:03.704Z,99928.47
2022-11-09T04:20:31.581Z,99917.97
2022-11-09T04:23:04.174Z,99917.00
2022-11-09T04:25:35.886Z,99916.97
2022-11-09T04:28:04.114Z,99913.38
2022-11-09T04:30:32.987Z,99920.47
2022-11-09T04:33:01.016Z,99906.41
2022-11-09T04:35:29.357Z,99917.88
2022-11-09T04:38:01.504Z,99924.06
2022-11-09T04:40:30.181Z,99920.66
2022-11-09T04:43:00.847Z,99919.81
2022-11-09T04:45:27.752Z,99918.91
2022-11-09T04:48:01.642Z,99919.75
2022-11-09T04:50:29.100Z,99923.16
2022-11-09T04:52:56.150Z,99919.66
2022-11-09T04:55:22.811Z,99924.06
2022-11-09T04:57:49.372Z,99930.22
2022-11-09T05:00:16.425Z,99931.91
2022-11-09T05:02:42.965Z,99918.66
2022-11-09T05:05:09.600Z,99919.47
2022-11-09T05:07:37.084Z,99920.22
2022-11-09T05:10:06.500Z,99927.19
2022-11-09T05:12:33.079Z,99923.69
2022-11-09T05:14:59.704Z,99932.38
2022-11-09T05:17:27.009Z,99929.75
2022-11-09T05:19:55.921Z,99926.13
2022-11-09T05:22:41.265Z,99926.13
2022-11-09T05:25:08.120Z,99928.72
2022-11-09T05:27:34.674Z,99930.44
2022-11-09T05:30:01.229Z,99933.00
2022-11-09T05:32:27.777Z,99930.28
2022-11-09T05:34:54.317Z,99923.09
2022-11-09T05:37:22.287Z,99930.28
2022-11-09T05:39:49.093Z,99940.78
2022-11-09T05:42:15.869Z,99939.00
2022-11-09T05:44:42.449Z,99945.25
2022-11-09T05:47:09.082Z,99952.25
2022-11-09T05:49:38.531Z,99947.91
2022-11-09T05:52:05.310Z,99949.59
2022-11-09T05:54:31.835Z,99947.91
2022-11-09T05:56:58.407Z,99955.84
2022-11-09T05:59:25.013Z,99960.22
2022-11-09T06:01:51.706Z,99957.56
2022-11-09T06:04:18.341Z,99958.44
2022-11-09T06:06:45.065Z,99952.25
2022-11-09T06:09:11.685Z,99954.84
2022-11-09T06:11:38.478Z,99954.84
2022-11-09T06:14:05.075Z,99954.75
2022-11-09T06:16:31.762Z,99954.75
2022-11-09T06:18:58.304Z,99954.69
2022-11-09T06:21:24.937Z,99953.84
2022-11-09T06:23:51.586Z,99956.50
2022-11-09T06:26:18.199Z,99953.91
2022-11-09T06:28:44.882Z,99959.22
2022-11-09T06:31:15.056Z,99958.34
2022-11-09T06:33:41.973Z,99965.38
2022-11-09T06:36:10.325Z,99966.31
2022-11-09T06:38:36.900Z,99972.47
2022-11-09T06:41:03.470Z,99976.81
2022-11-09T06:43:30.142Z,99966.31
2022-11-09T06:46:00.992Z,99971.63
2022-11-09T06:48:28.900Z,99973.31
2022-11-09T06:51:00.145Z,99967.16
2022-11-09T06:53:30.156Z,99965.38
2022-11-09T06:56:01.735Z,99960.91
2022-11-09T06:58:28.896Z,99964.47
2022-11-09T07:00:56.149Z,99968.00
2022-11-09T07:03:24.239Z,99971.47
2022-11-09T07:05:55.771Z,99970.53
2022-11-09T07:08:22.448Z,99974.03
2022-11-09T07:10:49.084Z,99970.53
2022-11-09T07:13:15.687Z,99964.47
2022-11-09T07:15:42.287Z,99970.66
2022-11-09T07:18:12.686Z,99976.06
2022-11-09T07:20:39.265Z,99979.72
2022-11-09T07:23:08.083Z,99986.00
2022-11-09T07:25:35.066Z,99979.94
2022-11-09T07:28:07.620Z,99973.00
2022-11-09T07:30:35.341Z,99982.75
2022-11-09T07:33:09.271Z,99987.22
2022-11-09T07:35:36.993Z,99975.91
2022-11-09T07:38:03.624Z,99979.47
2022-11-09T07:40:30.510Z,99969.88
2022-11-09T07:43:01.383Z,99968.22
2022-11-09T07:45:29.385Z,99972.63
2022-11-09T07:48:01.818Z,99983.22
2022-11-09T07:50:30.072Z,99990.22
2022-11-09T07:52:58.143Z,99993.69
2022-11-09T07:55:25.913Z,99978.63
2022-11-09T07:58:00.453Z,99982.91
2022-11-09T08:00:29.252Z,99989.84
2022-11-09T08:02:56.279Z,99992.41
2022-11-09T08:05:23.144Z,99991.31
2022-11-09T08:07:56.178Z,99979.72
2022-11-09T08:10:23.115Z,99984.00
2022-11-09T08:12:57.619Z,99994.38
2022-11-09T08:15:28.092Z,99988.00
2022-11-09T08:17:58.501Z,99981.78
2022-11-09T08:20:25.108Z,99992.25
2022-11-09T08:22:51.684Z,99992.16
2022-11-09T08:25:18.343Z,99998.25
2022-11-09T08:27:44.951Z,99996.38
2022-11-09T08:30:17.569Z,99988.34
2022-11-09T08:32:48.015Z,99990.91
2022-11-09T08:35:19.894Z,99986.31
2022-11-09T08:37:48.355Z,99997.72
2022-11-09T08:40:17.755Z,100000.22
2022-11-09T08:42:44.541Z,99999.19
2022-11-09T08:45:11.588Z,99998.19
2022-11-09T08:47:40.967Z,100002.50
2022-11-09T08:50:08.828Z,100004.16
2022-11-09T08:52:35.456Z,100004.00
2022-11-09T08:55:02.331Z,99996.81
2022-11-09T08:57:29.473Z,99999.31
2022-11-09T08:59:56.112Z,99988.53
2022-11-09T09:02:22.728Z,99992.75
2022-11-09T09:04:49.410Z,99988.09
2022-11-09T09:07:17.887Z,99986.03
2022-11-09T09:09:44.561Z,99976.06
2022-11-09T09:12:14.018Z,99980.28
2022-11-09T09:14:40.613Z,99986.19
2022-11-09T09:17:07.183Z,99997.44
2022-11-09T09:19:34.809Z,99999.00
2022-11-09T09:22:01.716Z,99994.28
2022-11-09T09:24:28.643Z,99987.03
2022-11-09T09:26:55.292Z,99986.97
2022-11-09T09:29:21.849Z,99984.16
2022-11-09T09:31:49.574Z,99987.56
2022-11-09T09:34:16.543Z,99979.44
2022-11-09T09:36:47.692Z,99977.56
2022-11-09T09:39:15.501Z,99982.72
2022-11-09T09:41:52.521Z,99985.28
2022-11-09T09:44:44.846Z,99996.75
2022-11-09T09:47:14.492Z,99985.13
2022-11-09T09:50:19.725Z,99996.38
2022-11-09T09:53:23.668Z,99998.78
2022-11-09T09:55:57.588Z,99985.34
2022-11-09T09:58:30.786Z,99989.69
2022-11-09T10:01:07.299Z,99991.50
2022-11-09T10:03:34.043Z,99985.34
2022-11-09T10:06:09.656Z,99993.22
2022-11-09T10:09:16.202Z,99989.69
2022-11-09T10:12:09.155Z,99991.34
2022-11-09T10:15:03.840Z,99997.66
2022-11-09T10:17:49.062Z,100010.19
2022-11-09T10:20:49.181Z,99998.78
2022-11-09T10:23:43.495Z,99998.88
2022-11-09T10:26:19.232Z,100007.69
2022-11-09T10:29:15.114Z,100009.72
2022-11-09T10:31:46.837Z,100001.84
2022-11-09T10:34:36.312Z,99992.06
2022-11-09T10:37:14.631Z,99995.84
2022-11-09T10:39:48.145Z,99994.09
2022-11-09T10:42:17.035Z,99984.38
2022-11-09T10:44:46.252Z,99975.44
2022-11-09T10:47:16.945Z,99986.59
2022-11-09T10:49:44.254Z,99979.22
2022-11-09T10:52:45.918Z,99983.47
2022-11-09T10:55:26.717Z,99971.78
2022-11-09T10:58:03.475Z,99972.50
2022-11-09T11:00:30.117Z,99979.53
2022-11-09T11:02:56.817Z,99976.69
2022-11-09T11:05:27.155Z,99980.00
2022-11-09T11:07:53.995Z,99982.50
2022-11-09T11:10:21.869Z,99989.34
2022-11-09T11:13:14.754Z,99987.38
2022-11-09T11:15:42.642Z,99976.69
2022-11-09T11:18:26.410Z,99979.34
2022-11-09T11:21:18.733Z,99980.19
2022-11-09T11:24:05.850Z,99988.25
2022-11-09T11:26:40.370Z,99981.22
2022-11-09T11:29:19.134Z,99974.19
2022-11-09T11:31:45.929Z,99979.69
2022-11-09T11:34:26.645Z,99971.69
2022-11-09T11:37:17.926Z,99961.22
2022-11-09T11:39:57.705Z,99966.63
2022-11-09T11:43:01.130Z,99950.84
2022-11-09T11:45:42.712Z,99956.22
2022-11-09T11:48:38.250Z,99948.25
2022-11-09T11:51:23.834Z,99947.28
2022-11-09T11:54:19.697Z,99949.03
2022-11-09T11:56:55.410Z,99944.63
2022-11-09T11:59:22.007Z,99961.47
2022-11-09T12:02:08.016Z,99948.19
2022-11-09T12:04:34.517Z,99942.88
2022-11-09T12:07:39.870Z,99942.88
2022-11-09T12:10:34.153Z,99948.13
2022-11-09T12:13:17.725Z,99950.66
2022-11-09T12:15:58.369Z,99937.31
2022-11-09T12:18:43.305Z,99957.72
2022-11-09T12:21:17.663Z,99949.81
2022-11-09T12:24:04.226Z,99951.56
2022-11-09T12:26:43.030Z,99948.97
2022-11-09T12:29:21.004Z,99945.34
2022-11-09T12:32:20.474Z,99948.13
2022-11-09T12:34:47.002Z,99959.72
2022-11-09T12:37:18.046Z,99954.56
2022-11-09T12:39:52.873Z,99956.53
2022-11-09T12:42:37.962Z,99948.72
2022-11-09T12:45:18.789Z,99949.78
2022-11-09T12:47:46.034Z,99950.00
2022-11-09T12:50:18.781Z,99956.44
2022-11-09T12:52:48.451Z,99958.41
2022-11-09T12:55:18.531Z,99967.38
2022-11-09T12:57:46.844Z,99966.63
2022-11-09T13:00:34.955Z,99980.81
2022-11-09T13:03:07.219Z,99976.56
2022-11-09T13:05:37.648Z,99977.47
2022-11-09T13:08:15.671Z,99971.41
2022-11-09T13:10:42.714Z,99982.94
2022-11-09T13:13:12.287Z,99971.47
2022-11-09T13:15:40.228Z,99982.09
2022-11-09T13:18:35.476Z,99974.13
2022-11-09T13:21:20.970Z,99971.47
2022-11-09T13:24:02.752Z,99966.25
2022-11-09T13:26:33.454Z,99962.66
2022-11-09T13:29:15.281Z,99962.75
2022-11-09T13:32:24.779Z,99970.72
2022-11-09T13:34:57.249Z,99960.25
2022-11-09T13:37:55.987Z,99955.88
2022-11-09T13:40:31.679Z,99959.47
2022-11-09T13:43:02.179Z,99971.03
2022-11-09T13:45:36.640Z,99973.69
2022-11-09T13:48:05.784Z,99967.59
2022-11-09T13:50:34.825Z,99969.38
2022-11-09T13:53:02.715Z,99979.25
2022-11-09T13:55:31.682Z,99979.31
2022-11-09T13:58:13.825Z,99982.91
2022-11-09T14:00:46.139Z,99989.16
2022-11-09T14:03:28.966Z,99989.31
2022-11-09T14:06:01.198Z,99979.72
2022-11-09T14:08:40.022Z,99980.72
2022-11-09T14:11:43.792Z,99988.00
2022-11-09T14:14:17.906Z,99989.16
2022-11-09T14:16:57.660Z,99988.38
2022-11-09T14:19:47.735Z,99989.50
2022-11-09T14:22:19.749Z,99988.78
2022-11-09T14:24:46.962Z,99988.09
2022-11-09T14:27:17.728Z,99982.94
2022-11-09T14:29:50.398Z,99977.69
2022-11-09T14:32:33.012Z,99982.28
2022-11-09T14:35:19.708Z,99986.84
2022-11-09T14:37:46.585Z,99983.38
2022-11-09T14:40:17.493Z,99975.53
2022-11-09T14:42:50.585Z,99980.97
2022-11-09T14:45:18.100Z,99972.31
2022-11-09T14:47:48.308Z,99983.84
2022-11-09T14:50:19.222Z,99981.34
2022-11-09T14:52:46.229Z,99983.28
2022-11-09T14:55:15.382Z,99987.88
2022-11-09T14:57:43.253Z,99991.56
2022-11-09T15:00:44.673Z,99989.06
2022-11-09T15:03:27.642Z,99993.56
2022-11-09T15:06:07.427Z,99987.47
2022-11-09T15:08:36.464Z,99984.09
2022-11-09T15:11:03.531Z,99994.66
2022-11-09T15:13:36.212Z,99985.91
2022-11-09T15:16:03.484Z,99992.25
2022-11-09T15:18:34.462Z,99986.22
2022-11-09T15:21:20.249Z,99996.03
2022-11-09T15:23:49.103Z,100000.63
2022-11-09T15:26:49.445Z,100005.28
2022-11-09T15:29:34.266Z,100006.31
2022-11-09T15:32:12.840Z,100005.44
2022-11-09T15:34:52.442Z,100002.00
2022-11-09T15:37:23.957Z,100006.50
2022-11-09T15:39:51.121Z,99999.59
2022-11-09T15:42:18.019Z,100009.25
2022-11-09T15:44:44.791Z,100019.88
2022-11-09T15:47:31.746Z,100017.31
2022-11-09T15:50:00.771Z,100022.66
2022-11-09T15:52:28.341Z,100026.25
2022-11-09T15:54:55.113Z,100023.59
2022-11-09T15:57:21.909Z,100014.88
2022-11-09T15:59:50.790Z,100017.53
2022-11-09T16:02:19.109Z,100016.72
2022-11-09T16:04:45.702Z,100015.88
2022-11-09T16:07:16.647Z,100022.03
2022-11-09T16:09:43.333Z,100019.47
2022-11-09T16:12:10.535Z,100015.03
2022-11-09T16:14:37.487Z,100014.22
2022-11-09T16:17:04.873Z,100015.16
2022-11-09T16:19:31.529Z,100031.97
2022-11-09T16:21:59.093Z,100023.16
2022-11-09T16:24:25.905Z,100029.41
2022-11-09T16:26:54.062Z,100021.47
2022-11-09T16:29:23.385Z,100018.94
2022-11-09T16:31:52.670Z,100026.03
2022-11-09T16:34:22.486Z,100022.75
2022-11-09T16:36:56.418Z,100027.19
2022-11-09T16:39:25.624Z,100020.25
2022-11-09T16:41:53.108Z,100029.09
2022-11-09T16:44:24.098Z,100027.47
2022-11-09T16:46:52.341Z,100038.13
2022-11-09T16:49:21.312Z,100038.28
2022-11-09T16:51:47.897Z,100029.47
2022-11-09T16:54:14.488Z,100036.47
2022-11-09T16:56:41.089Z,100034.75
2022-11-09T16:59:07.766Z,100032.19
2022-11-09T17:01:34.552Z,100030.53
2022-11-09T17:04:01.185Z,100035.91
2022-11-09T17:06:28.384Z,100041.19
2022-11-09T17:08:58.172Z,100039.47
2022-11-09T17:11:25.189Z,100034.19
2022-11-09T17:13:59.636Z,100033.31
2022-11-09T17:16:26.820Z,100038.72
2022-11-09T17:18:55.316Z,100034.31
2022-11-09T17:21:23.496Z,100045.00
2022-11-09T17:23:51.030Z,100048.50
2022-11-09T17:26:19.194Z,100046.66
2022-11-09T17:28:46.081Z,100038.72
2022-11-09T17:31:17.983Z,100044.78
2022-11-09T17:33:45.162Z,100049.13
2022-11-09T17:36:14.699Z,100046.34
2022-11-09T17:38:41.827Z,100043.66
2022-11-09T17:41:12.300Z,100046.22
2022-11-09T17:43:40.431Z,100045.22
2022-11-09T17:46:12.724Z,100043.44
2022-11-09T17:48:40.847Z,100051.25
2022-11-09T17:51:08.224Z,100044.09
2022-11-09T17:53:35.603Z,100036.91
2022-11-09T17:56:02.638Z,100041.22
2022-11-09T17:58:29.877Z,100042.88
2022-11-09T18:00:56.529Z,100045.41
2022-11-09T18:03:24.175Z,100036.50
2022-11-09T18:05:50.724Z,100041.66
2022-11-09T18:08:17.387Z,100050.38
2022-11-09T18:10:45.447Z,100037.13
2022-11-09T18:13:12.047Z,100036.22
2022-11-09T18:15:40.036Z,100037.09
2022-11-09T18:18:06.812Z,100042.38
2022-11-09T18:20:33.821Z,100042.44
2022-11-09T18:23:00.373Z,100044.22
2022-11-09T18:25:26.996Z,100040.81
2022-11-09T18:27:53.536Z,100050.47
2022-11-09T18:30:20.497Z,100052.28
2022-11-09T18:32:47.069Z,100052.28
2022-11-09T18:35:13.630Z,100054.91
2022-11-09T18:37:41.428Z,100053.13
2022-11-09T18:40:08.608Z,100055.81
2022-11-09T18:42:35.162Z,100057.63
2022-11-09T18:45:01.861Z,100066.44
2022-11-09T18:47:28.789Z,100063.78
2022-11-09T18:49:55.543Z,100068.16
2022-11-09T18:52:22.198Z,100064.66
2022-11-09T18:54:49.565Z,100074.31
2022-11-09T18:57:20.172Z,100073.47
2022-11-09T18:59:46.917Z,100075.28
2022-11-09T19:02:14.069Z,100073.47
2022-11-09T19:04:40.938Z,100082.34
2022-11-09T19:07:07.592Z,100083.13
2022-11-09T19:09:38.938Z,100079.63
2022-11-09T19:12:10.488Z,100083.22
2022-11-09T19:14:41.330Z,100070.97
2022-11-09T19:17:12.504Z,100078.09
2022-11-09T19:19:39.482Z,100089.66
2022-11-09T19:22:14.791Z,100073.88
2022-11-09T19:24:42.006Z,100081.97
2022-11-09T19:27:09.060Z,100087.34
2022-11-09T19:29:35.726Z,100088.34
2022-11-09T19:32:02.348Z,100084.88
2022-11-09T19:34:29.149Z,100086.75
2022-11-09T19:36:55.719Z,100083.31
2022-11-09T19:39:22.690Z,100087.97
2022-11-09T19:41:49.277Z,100086.31
2022-11-09T19:44:18.024Z,100098.69
2022-11-09T19:46:44.767Z,100092.59
2022-11-09T19:49:11.490Z,100103.31
2022-11-09T19:51:38.815Z,100094.53
2022-11-09T19:54:06.180Z,100094.59
2022-11-09T19:56:33.571Z,100089.34
2022-11-09T19:59:01.982Z,100102.59
2022-11-09T20:01:30.357Z,100104.38
2022-11-09T20:03:59.090Z,100109.69
2022-11-09T20:06:26.826Z,100108.91
2022-11-09T20:08:53.946Z,100105.47
2022-11-09T20:11:41.615Z,100110.81
2022-11-09T20:14:09.268Z,100103.03
2022-11-09T20:16:37.035Z,100107.44
2022-11-09T20:19:05.127Z,100112.72
2022-11-09T20:21:31.763Z,100114.59
2022-11-09T20:23:58.941Z,100116.41
2022-11-09T20:26:25.576Z,100120.84
2022-11-09T20:28:53.635Z,100113.88
2022-11-09T20:31:21.675Z,100113.00
2022-11-09T20:33:49.393Z,100116.56
2022-11-09T20:36:18.632Z,100113.91
2022-11-09T20:38:45.469Z,100116.56
2022-11-09T20:41:12.249Z,100115.66
2022-11-09T20:43:39.582Z,100113.00
2022-11-09T20:46:08.842Z,100117.47
2022-11-09T20:48:53.391Z,100117.47
2022-11-09T20:51:22.058Z,100119.16
2022-11-09T20:53:50.320Z,100116.53
2022-11-09T20:56:18.117Z,100111.16
2022-11-09T20:58:44.708Z,100111.16
2022-11-09T21:01:17.205Z,100121.59
2022-11-09T21:03:44.487Z,100109.94
2022-11-09T21:06:12.845Z,100117.03
2022-11-09T21:08:39.968Z,100117.91
2022-11-09T21:11:08.076Z,100117.91
2022-11-09T21:13:34.896Z,100114.34
2022-11-09T21:16:11.250Z,100118.75
2022-11-09T21:18:37.827Z,100120.66
2022-11-09T21:21:12.894Z,100121.59
2022-11-09T21:23:58.773Z,100124.34
2022-11-09T21:26:44.799Z,100126.19
2022-11-09T21:29:32.742Z,100134.25
2022-11-09T21:31:59.985Z,100139.53
2022-11-09T21:34:27.078Z,100133.47
2022-11-09T21:36:54.076Z,100124.72
2022-11-09T21:39:20.636Z,100125.66
2022-11-09T21:41:48.165Z,100124.84
2022-11-09T21:44:15.294Z,100119.63
2022-11-09T21:46:43.383Z,100120.53
2022-11-09T21:49:12.353Z,100125.81
2022-11-09T21:51:39.901Z,100131.19
2022-11-09T21:54:08.128Z,100133.84
2022-11-09T21:56:35.162Z,100130.34
2022-11-09T21:59:01.862Z,100125.97
2022-11-09T22:01:28.486Z,100125.19
2022-11-09T22:03:55.823Z,100122.53
2022-11-09T22:06:23.032Z,100131.41
2022-11-09T22:08:51.496Z,100142.13
2022-11-09T22:11:42.379Z,100136.81
2022-11-09T22:14:37.481Z,100144.78
2022-11-09T22:17:08.640Z,100143.97
2022-11-09T22:19:55.883Z,100151.91
2022-11-09T22:22:22.670Z,100152.84
2022-11-09T22:24:49.287Z,100151.09
2022-11-09T22:27:15.908Z,100154.63
2022-11-09T22:29:42.513Z,100152.97
2022-11-09T22:32:09.289Z,100151.25
2022-11-09T22:34:35.895Z,100147.78
2022-11-09T22:37:02.525Z,100139.94
2022-11-09T22:39:29.065Z,100146.94
2022-11-09T22:41:55.673Z,100151.41
2022-11-09T22:44:22.216Z,100157.63
2022-11-09T22:46:49.230Z,100148.84
2022-11-09T22:49:17.282Z,100144.44
2022-11-09T22:51:43.908Z,100149.75
2022-11-09T22:54:10.603Z,100151.53
2022-11-09T22:56:37.214Z,100162.06
2022-11-09T22:59:03.767Z,100159.47
2022-11-09T23:01:30.605Z,100160.34
2022-11-09T23:03:57.306Z,100159.47
2022-11-09T23:06:26.832Z,100163.06
2022-11-09T23:08:53.520Z,100169.22
2022-11-09T23:11:22.192Z,100166.63
2022-11-09T23:13:53.024Z,100175.56
2022-11-09T23:16:20.216Z,100180.03
2022-11-09T23:18:56.590Z,100182.75
2022-11-09T23:21:37.160Z,100170.38
2022-11-09T23:24:08.387Z,100173.03
2022-11-09T23:26:35.050Z,100174.88
2022-11-09T23:29:01.712Z,100179.28
2022-11-09T23:31:28.367Z,100175.88
2022-11-09T23:33:56.738Z,100179.41
2022-11-09T23:36:25.466Z,100182.13
2022-11-09T23:38:52.205Z,100180.47
2022-11-09T23:41:19.314Z,100175.25
2022-11-09T23:43:49.219Z,100178.94
2022-11-09T23:46:17.886Z,100183.34
2022-11-09T23:48:47.282Z,100181.63
2022-11-09T23:51:13.813Z,100177.28
2022-11-09T23:53:40.416Z,100189.56
2022-11-09T23:56:09.354Z,100179.06
2022-11-09T23:58:36.765Z,100187.78
